Time;durP1;ratioP1;P1;durP2;ratioP2;P2;SDS_P1;SDS_P2;PMS_P1;PMS_P2;Temp;Humidity;BMP_temperature;BMP_pressure;BME280_temperature;BME280_humidity;BME280_pressure;Samples;Min_cycle;Max_cycle;Signal;HPM_P1;HPM_P2
2024/02/29 00:01:16;;;;;;;88.4;48.3;;;;;;;9.9;88.54;99195;;;;
2024/02/29 00:12:16;;;;;;;86.7;42.4;;;;;;;9.85;88.14;99196.666666667;;;;
2024/02/29 00:22:16;;;;;;;86.7;42.4;;;;;;;9.79;88.04;99195;;;;
2024/02/29 00:33:16;;;;;;;86.7;42.4;;;;;;;9.88;87.81;99200;;;;
2024/02/29 00:43:16;;;;;;;55.8;32;;;;;;;9.9;87.48;99200;;;;
2024/02/29 00:54:16;;;;;;;55.8;32;;;;;;;10.07;87.34;99196.666666667;;;;
2024/02/29 01:05:16;;;;;;;55.8;32;;;;;;;10.1;86.77;99191.666666667;;;;
2024/02/29 01:16:17;;;;;;;51;31.9;;;;;;;10.12;86.28;99183.333333333;;;;
2024/02/29 01:27:17;;;;;;;51;31.9;;;;;;;9.91;87.19;99180;;;;
2024/02/29 01:37:16;;;;;;;51;31.9;;;;;;;9.74;87.86;99176.666666667;;;;
2024/02/29 01:47:16;;;;;;;48;28.3;;;;;;;9.49;88.57;99178.333333333;;;;
2024/02/29 01:57:16;;;;;;;48;28.3;;;;;;;9.28;89.2;99178.333333333;;;;
2024/02/29 02:08:16;;;;;;;41.5;23.1;;;;;;;9.36;89.04;99178.333333333;;;;
2024/02/29 02:18:16;;;;;;;41.5;23.1;;;;;;;9.61;89.24;99173.333333333;;;;
2024/02/29 02:28:16;;;;;;;41.5;23.1;;;;;;;9.61;88.22;99161.666666667;;;;
2024/02/29 02:38:16;;;;;;;35.5;21.4;;;;;;;9.2;89.69;99170;;;;
2024/02/29 02:49:16;;;;;;;35.5;21.4;;;;;;;9.33;89.49;99168.333333333;;;;
2024/02/29 02:59:16;;;;;;;35.5;21.4;;;;;;;9.43;89.02;99163.333333333;;;;
2024/02/29 03:10:16;;;;;;;31.4;19.1;;;;;;;9.44;88.97;99175;;;;
2024/02/29 03:20:16;;;;;;;31.4;19.1;;;;;;;9.49;88.63;99171.666666667;;;;
2024/02/29 03:31:16;;;;;;;31.4;19.1;;;;;;;9.66;88.28;99176.666666667;;;;
2024/02/29 03:41:16;;;;;;;27.7;17.2;;;;;;;9.44;88.27;99173.333333333;;;;
2024/02/29 03:51:18;;;;;;;27.7;17.2;;;;;;;9.16;89.55;99176.666666667;;;;
2024/02/29 04:01:16;;;;;;;27.7;17.2;;;;;;;9.26;89.56;99161.666666667;;;;
2024/02/29 04:12:16;;;;;;;36.5;21.4;;;;;;;9.18;89.21;99160;;;;
2024/02/29 04:23:17;;;;;;;36.5;21.4;;;;;;;9.21;89.65;99151.666666667;;;;
2024/02/29 04:34:16;;;;;;;36.5;21.4;;;;;;;9.08;89.24;99148.333333333;;;;
2024/02/29 04:45:16;;;;;;;36.1;21.3;;;;;;;9.06;89.41;99140;;;;
2024/02/29 04:55:16;;;;;;;36.1;21.3;;;;;;;8.92;89.3;99136.666666667;;;;
2024/02/29 05:06:16;;;;;;;36.1;21.3;;;;;;;8.95;89.42;99138.333333333;;;;
2024/02/29 05:16:17;;;;;;;29.7;16.8;;;;;;;9.2;89.04;99146.666666667;;;;
2024/02/29 05:27:16;;;;;;;29.7;16.8;;;;;;;9.21;88.13;99155;;;;
2024/02/29 05:38:16;;;;;;;29.7;17.3;;;;;;;9.37;88.5;99163.333333333;;;;
2024/02/29 05:49:16;;;;;;;29.7;17.3;;;;;;;9.19;87.97;99168.333333333;;;;
2024/02/29 06:00:17;;;;;;;29.7;17.3;;;;;;;9.07;88.76;99166.666666667;;;;
2024/02/29 06:10:16;;;;;;;31.2;17.1;;;;;;;8.99;89.04;99168.333333333;;;;
2024/02/29 06:20:16;;;;;;;31.2;17.1;;;;;;;8.93;89.67;99158.333333333;;;;
2024/02/29 06:30:16;;;;;;;31.2;17.1;;;;;;;9.1;89.32;99160;;;;
2024/02/29 06:41:17;;;;;;;31.3;17.3;;;;;;;9.28;89.28;99156.666666667;;;;
2024/02/29 06:51:17;;;;;;;31.3;17.3;;;;;;;9.4;89.43;99186.666666667;;;;
2024/02/29 07:02:16;;;;;;;31.3;17.3;;;;;;;9.41;88.32;99130;;;;
2024/02/29 07:12:17;;;;;;;33.4;21.1;;;;;;;9.5;87.91;99135;;;;
2024/02/29 07:22:17;;;;;;;33.4;21.1;;;;;;;9.51;87.84;99142.5;;;;
2024/02/29 07:32:17;;;;;;;33.4;21.1;;;;;;;9.74;87.77;99142.5;;;;
2024/02/29 07:42:17;;;;;;;30.1;20.5;;;;;;;9.63;87.36;99132;;;;
2024/02/29 07:53:16;;;;;;;30.1;20.5;;;;;;;9.73;87.04;99128;;;;
2024/02/29 08:04:17;;;;;;;30.1;20.5;;;;;;;9.98;85.88;99112;;;;
2024/02/29 08:15:16;;;;;;;26.3;16.7;;;;;;;9.94;85.36;99114;;;;
2024/02/29 08:25:17;;;;;;;26.3;16.7;;;;;;;10.31;84.83;99115;;;;
2024/02/29 08:35:16;;;;;;;26.3;16.7;;;;;;;10.86;84.39;99115;;;;
2024/02/29 08:46:16;;;;;;;24.1;15.4;;;;;;;11.24;82.48;99105;;;;
2024/02/29 08:56:17;;;;;;;24.1;15.4;;;;;;;11.48;81.65;99102.5;;;;
2024/02/29 09:07:17;;;;;;;25.4;19.8;;;;;;;11.53;82;99105;;;;
2024/02/29 09:18:16;;;;;;;25.4;19.8;;;;;;;11.76;80.25;99105;;;;
2024/02/29 09:28:16;;;;;;;25.4;19.8;;;;;;;12;80.26;99095;;;;
2024/02/29 09:38:17;;;;;;;27.7;22.1;;;;;;;13.03;78.1;99077.5;;;;
2024/02/29 09:49:17;;;;;;;27.7;22.1;;;;;;;12.67;77.26;99067.5;;;;
2024/02/29 10:00:17;;;;;;;27.7;22.1;;;;;;;13.32;76.22;99052.5;;;;
2024/02/29 10:11:16;;;;;;;27.5;21.8;;;;;;;13.22;76.04;99050;;;;
2024/02/29 10:21:17;;;;;;;27.5;21.8;;;;;;;13.32;74.61;99052.5;;;;
2024/02/29 10:31:17;;;;;;;27.5;21.8;;;;;;;12.94;76.04;99042.5;;;;
2024/02/29 10:41:17;;;;;;;34.3;24.2;;;;;;;12.76;76.1;99030;;;;
2024/02/29 10:52:17;;;;;;;34.3;24.2;;;;;;;12.94;74.2;99012.5;;;;
2024/02/29 11:03:17;;;;;;;34.3;24.2;;;;;;;13;74.08;98995;;;;
2024/02/29 11:14:17;;;;;;;26.7;23.1;;;;;;;12.94;74.17;98987.5;;;;
2024/02/29 11:24:17;;;;;;;26.7;23.1;;;;;;;13.21;74.33;98982.5;;;;
2024/02/29 11:34:17;;;;;;;26.7;23.1;;;;;;;13.69;73.54;98972.5;;;;
2024/02/29 11:45:17;;;;;;;30.9;24.1;;;;;;;13.49;72.23;98962.5;;;;
2024/02/29 11:56:17;;;;;;;30.9;24.1;;;;;;;13.64;73;98952.5;;;;
2024/02/29 12:06:17;;;;;;;30.9;24.1;;;;;;;14.37;70.58;98932.5;;;;
2024/02/29 12:17:18;;;;;;;28.6;23.4;;;;;;;14.44;70.78;98932.5;;;;
2024/02/29 12:27:17;;;;;;;28.6;23.4;;;;;;;14.14;70.42;98920;;;;
2024/02/29 12:37:17;;;;;;;27.7;22.8;;;;;;;14.58;69.81;98905;;;;
2024/02/29 12:48:17;;;;;;;27.7;22.8;;;;;;;14.49;69.49;98892.5;;;;
2024/02/29 12:58:17;;;;;;;27.7;22.8;;;;;;;14.54;69.45;98872.5;;;;
2024/02/29 13:09:19;;;;;;;27.1;23.5;;;;;;;14.2;69.61;98862.5;;;;
2024/02/29 13:19:17;;;;;;;27.1;23.5;;;;;;;14.31;69.64;98845;;;;
2024/02/29 13:29:17;;;;;;;27.1;23.5;;;;;;;14.29;71.22;98827.5;;;;
2024/02/29 13:40:17;;;;;;;30.4;26.1;;;;;;;14.27;71.45;98817.5;;;;
2024/02/29 13:50:18;;;;;;;30.4;26.1;;;;;;;14.56;69.54;98807.5;;;;
2024/02/29 14:01:17;;;;;;;30.4;26.1;;;;;;;14.47;69.45;98805;;;;
2024/02/29 14:12:17;;;;;;;31.9;24.6;;;;;;;14.08;70.34;98795;;;;
2024/02/29 14:22:17;;;;;;;31.9;24.6;;;;;;;13.94;70.23;98792.5;;;;
2024/02/29 14:33:17;;;;;;;31.9;24.6;;;;;;;14;70.89;98782.5;;;;
2024/02/29 14:44:17;;;;;;;32.4;24.9;;;;;;;14.04;70.8;98777.5;;;;
2024/02/29 14:54:17;;;;;;;32.4;24.9;;;;;;;13.81;71.41;98777.5;;;;
2024/02/29 15:04:17;;;;;;;32.4;24.9;;;;;;;13.95;73.02;98776;;;;
2024/02/29 15:14:17;;;;;;;31.1;24.9;;;;;;;13.9;73.46;98774;;;;
2024/02/29 15:25:17;;;;;;;31.1;24.9;;;;;;;13.52;75.25;98768;;;;
2024/02/29 15:35:17;;;;;;;31.1;24.9;;;;;;;13.02;77.09;98756;;;;
2024/02/29 15:45:17;;;;;;;35.9;29.7;;;;;;;12.95;77.01;98744;;;;
2024/02/29 15:55:17;;;;;;;35.9;29.7;;;;;;;12.41;79.14;98746;;;;
2024/02/29 16:06:17;;;;;;;35.9;29.7;;;;;;;12.15;79.5;98746;;;;
2024/02/29 16:17:17;;;;;;;34;28.5;;;;;;;11.75;80.85;98744;;;;
2024/02/29 16:27:17;;;;;;;34;28.5;;;;;;;11.46;81.37;98725;;;;
2024/02/29 16:37:17;;;;;;;31.2;18.7;;;;;;;11.07;82.43;98740;;;;
2024/02/29 16:47:17;;;;;;;31.2;18.7;;;;;;;10.86;83.08;98730;;;;
2024/02/29 16:57:17;;;;;;;31.2;18.7;;;;;;;10.65;83.38;98724;;;;
2024/02/29 17:08:17;;;;;;;36.7;21.5;;;;;;;10.38;84.45;98732;;;;
2024/02/29 17:18:17;;;;;;;36.7;21.5;;;;;;;10.23;85.14;98736;;;;
2024/02/29 17:29:17;;;;;;;36.7;21.5;;;;;;;10.04;86.77;98738;;;;
2024/02/29 17:39:17;;;;;;;36.1;20.7;;;;;;;9.92;86.77;98734;;;;
2024/02/29 17:50:17;;;;;;;36.1;20.7;;;;;;;9.8;87.36;98715;;;;
2024/02/29 18:01:17;;;;;;;36.1;20.7;;;;;;;9.73;87.56;98710;;;;
2024/02/29 18:11:17;;;;;;;33.2;21.6;;;;;;;9.51;88.73;98703.333333333;;;;
2024/02/29 18:22:17;;;;;;;33.2;21.6;;;;;;;9.49;88.83;98698.333333333;;;;
2024/02/29 18:33:17;;;;;;;33.2;21.6;;;;;;;9.39;88.62;98691.666666667;;;;
2024/02/29 18:43:17;;;;;;;36.6;22.6;;;;;;;9.26;88.53;98690;;;;
2024/02/29 18:54:18;;;;;;;36.6;22.6;;;;;;;9.08;88.92;98686.666666667;;;;
2024/02/29 19:05:17;;;;;;;36.6;22.6;;;;;;;8.94;89.01;98676.666666667;;;;
2024/02/29 19:15:17;;;;;;;38.3;22;;;;;;;8.78;89.55;98663.333333333;;;;
2024/02/29 19:26:17;;;;;;;38.3;22;;;;;;;8.69;89.05;98651.666666667;;;;
2024/02/29 19:36:17;;;;;;;38.3;22;;;;;;;8.57;88.55;98648.333333333;;;;
2024/02/29 19:47:20;;;;;;;46.6;27.6;;;;;;;8.41;88.58;98640;;;;
2024/02/29 19:57:17;;;;;;;46.6;27.6;;;;;;;8.29;89.06;98648.333333333;;;;
2024/02/29 20:07:17;;;;;;;43.4;25.2;;;;;;;8.21;89.54;98638.333333333;;;;
2024/02/29 20:18:17;;;;;;;43.4;25.2;;;;;;;8.17;89.83;98625;;;;
2024/02/29 20:29:17;;;;;;;43.4;25.2;;;;;;;8.05;90.49;98620;;;;
2024/02/29 20:39:18;;;;;;;42.2;25.6;;;;;;;7.97;90.97;98618.333333333;;;;
2024/02/29 20:49:18;;;;;;;42.2;25.6;;;;;;;7.94;91.42;98605;;;;
2024/02/29 20:59:17;;;;;;;42.2;25.6;;;;;;;7.97;91.23;98603.333333333;;;;
2024/02/29 21:10:17;;;;;;;42.1;25.4;;;;;;;7.87;92.24;98583.333333333;;;;
2024/02/29 21:20:17;;;;;;;42.1;25.4;;;;;;;7.87;92.44;98576.666666667;;;;
2024/02/29 21:31:17;;;;;;;42.1;25.4;;;;;;;7.95;92.36;98556.666666667;;;;
2024/02/29 21:42:17;;;;;;;46.2;26.5;;;;;;;8.13;91.86;98548.333333333;;;;
2024/02/29 21:53:18;;;;;;;46.2;26.5;;;;;;;8.12;92.28;98526.666666667;;;;
2024/02/29 22:03:17;;;;;;;46.2;26.5;;;;;;;8.04;93.13;98525;;;;
2024/02/29 22:13:17;;;;;;;49.8;30.5;;;;;;;8.25;93.08;98521.666666667;;;;
2024/02/29 22:24:17;;;;;;;49.8;30.5;;;;;;;8.29;92.82;98518.333333333;;;;
2024/02/29 22:35:17;;;;;;;49.8;30.5;;;;;;;8.38;92.66;98501.666666667;;;;
2024/02/29 22:45:17;;;;;;;55.9;31.1;;;;;;;8.28;92.24;98500;;;;
2024/02/29 22:56:17;;;;;;;55.9;31.1;;;;;;;8.34;92.7;98483.333333333;;;;
2024/02/29 23:07:17;;;;;;;57.3;33.4;;;;;;;8.33;92.01;98463.333333333;;;;
2024/02/29 23:18:17;;;;;;;57.3;33.4;;;;;;;8.21;92.26;98448.333333333;;;;
2024/02/29 23:29:17;;;;;;;57.3;33.4;;;;;;;8.11;92.87;98446.666666667;;;;
2024/02/29 23:39:17;;;;;;;51.2;32.4;;;;;;;7.95;93.3;98441.666666667;;;;
2024/02/29 23:50:17;;;;;;;51.2;32.4;;;;;;;8.12;92.98;98426.666666667;;;;
